sensor_id;sensor_type;location;lat;lon;timestamp;temperature;humidity
49385;DHT22;36795;45.028;38.968;2023-09-18T00:00:09;18.30;59.70
49385;DHT22;36795;45.028;38.968;2023-09-18T00:02:58;18.30;59.80
49385;DHT22;36795;45.028;38.968;2023-09-18T00:05:43;18.30;59.80
49385;DHT22;36795;45.028;38.968;2023-09-18T00:08:31;18.30;60.00
49385;DHT22;36795;45.028;38.968;2023-09-18T00:11:16;18.30;60.50
49385;DHT22;36795;45.028;38.968;2023-09-18T00:14:03;18.30;60.10
49385;DHT22;36795;45.028;38.968;2023-09-18T00:16:49;18.20;60.10
49385;DHT22;36795;45.028;38.968;2023-09-18T00:19:37;18.30;60.10
49385;DHT22;36795;45.028;38.968;2023-09-18T00:22:23;18.30;60.10
49385;DHT22;36795;45.028;38.968;2023-09-18T00:25:10;18.20;60.20
49385;DHT22;36795;45.028;38.968;2023-09-18T00:27:56;18.20;60.80
49385;DHT22;36795;45.028;38.968;2023-09-18T00:30:46;18.20;60.30
49385;DHT22;36795;45.028;38.968;2023-09-18T00:33:34;18.10;60.30
49385;DHT22;36795;45.028;38.968;2023-09-18T00:36:20;18.10;60.70
49385;DHT22;36795;45.028;38.968;2023-09-18T00:39:06;18.00;60.70
49385;DHT22;36795;45.028;38.968;2023-09-18T00:41:52;18.00;60.80
49385;DHT22;36795;45.028;38.968;2023-09-18T00:44:40;17.90;61.00
49385;DHT22;36795;45.028;38.968;2023-09-18T00:47:29;17.90;61.00
49385;DHT22;36795;45.028;38.968;2023-09-18T00:50:15;17.90;61.10
49385;DHT22;36795;45.028;38.968;2023-09-18T00:53:02;17.80;61.00
49385;DHT22;36795;45.028;38.968;2023-09-18T00:55:52;17.90;61.00
49385;DHT22;36795;45.028;38.968;2023-09-18T00:58:39;17.90;61.00
49385;DHT22;36795;45.028;38.968;2023-09-18T01:01:24;17.90;61.00
49385;DHT22;36795;45.028;38.968;2023-09-18T01:04:11;17.90;60.90
49385;DHT22;36795;45.028;38.968;2023-09-18T01:06:59;17.90;60.90
49385;DHT22;36795;45.028;38.968;2023-09-18T01:09:49;17.80;60.90
49385;DHT22;36795;45.028;38.968;2023-09-18T01:12:42;17.80;60.90
49385;DHT22;36795;45.028;38.968;2023-09-18T01:15:35;17.80;61.10
49385;DHT22;36795;45.028;38.968;2023-09-18T01:18:21;17.70;61.20
49385;DHT22;36795;45.028;38.968;2023-09-18T01:21:07;17.70;61.30
49385;DHT22;36795;45.028;38.968;2023-09-18T01:23:53;17.70;61.40
49385;DHT22;36795;45.028;38.968;2023-09-18T01:26:39;17.60;61.50
49385;DHT22;36795;45.028;38.968;2023-09-18T01:29:25;17.60;61.70
49385;DHT22;36795;45.028;38.968;2023-09-18T01:32:12;17.60;61.80
49385;DHT22;36795;45.028;38.968;2023-09-18T01:35:00;17.60;61.70
49385;DHT22;36795;45.028;38.968;2023-09-18T01:37:46;17.60;61.70
49385;DHT22;36795;45.028;38.968;2023-09-18T01:40:32;17.50;61.90
49385;DHT22;36795;45.028;38.968;2023-09-18T01:43:19;17.50;61.90
49385;DHT22;36795;45.028;38.968;2023-09-18T01:46:05;17.60;61.90
49385;DHT22;36795;45.028;38.968;2023-09-18T01:48:51;17.60;61.80
49385;DHT22;36795;45.028;38.968;2023-09-18T01:51:38;17.50;62.40
49385;DHT22;36795;45.028;38.968;2023-09-18T01:54:24;17.50;62.00
49385;DHT22;36795;45.028;38.968;2023-09-18T01:57:10;17.60;62.00
49385;DHT22;36795;45.028;38.968;2023-09-18T01:59:58;17.50;62.00
49385;DHT22;36795;45.028;38.968;2023-09-18T02:02:44;17.50;62.10
49385;DHT22;36795;45.028;38.968;2023-09-18T02:05:30;17.50;62.10
49385;DHT22;36795;45.028;38.968;2023-09-18T02:08:16;17.50;62.10
49385;DHT22;36795;45.028;38.968;2023-09-18T02:11:02;17.50;62.30
49385;DHT22;36795;45.028;38.968;2023-09-18T02:13:49;17.50;62.30
49385;DHT22;36795;45.028;38.968;2023-09-18T02:16:41;17.50;62.30
49385;DHT22;36795;45.028;38.968;2023-09-18T02:19:27;17.50;62.30
49385;DHT22;36795;45.028;38.968;2023-09-18T02:22:13;17.50;62.40
49385;DHT22;36795;45.028;38.968;2023-09-18T02:25:01;17.40;62.50
49385;DHT22;36795;45.028;38.968;2023-09-18T02:27:47;17.50;62.60
49385;DHT22;36795;45.028;38.968;2023-09-18T02:30:35;17.50;62.40
49385;DHT22;36795;45.028;38.968;2023-09-18T02:33:20;17.50;62.50
49385;DHT22;36795;45.028;38.968;2023-09-18T02:36:07;17.50;62.60
49385;DHT22;36795;45.028;38.968;2023-09-18T02:38:53;17.50;62.60
49385;DHT22;36795;45.028;38.968;2023-09-18T02:41:38;17.50;62.60
49385;DHT22;36795;45.028;38.968;2023-09-18T02:44:25;17.40;62.60
49385;DHT22;36795;45.028;38.968;2023-09-18T02:47:10;17.50;62.70
49385;DHT22;36795;45.028;38.968;2023-09-18T02:49:57;17.50;62.60
49385;DHT22;36795;45.028;38.968;2023-09-18T02:52:42;17.50;62.50
49385;DHT22;36795;45.028;38.968;2023-09-18T02:55:29;17.50;62.50
49385;DHT22;36795;45.028;38.968;2023-09-18T02:58:15;17.40;63.10
49385;DHT22;36795;45.028;38.968;2023-09-18T03:01:03;17.40;62.70
49385;DHT22;36795;45.028;38.968;2023-09-18T03:03:51;17.40;62.70
49385;DHT22;36795;45.028;38.968;2023-09-18T03:06:40;17.40;62.80
49385;DHT22;36795;45.028;38.968;2023-09-18T03:09:26;17.40;62.70
49385;DHT22;36795;45.028;38.968;2023-09-18T03:12:12;17.40;63.20
49385;DHT22;36795;45.028;38.968;2023-09-18T03:14:58;17.40;62.70
49385;DHT22;36795;45.028;38.968;2023-09-18T03:17:45;17.40;62.80
49385;DHT22;36795;45.028;38.968;2023-09-18T03:20:31;17.30;62.80
49385;DHT22;36795;45.028;38.968;2023-09-18T03:23:18;17.30;62.90
49385;DHT22;36795;45.028;38.968;2023-09-18T03:26:03;17.30;62.90
49385;DHT22;36795;45.028;38.968;2023-09-18T03:28:50;17.40;62.90
49385;DHT22;36795;45.028;38.968;2023-09-18T03:31:36;17.40;62.80
49385;DHT22;36795;45.028;38.968;2023-09-18T03:34:22;17.40;62.70
49385;DHT22;36795;45.028;38.968;2023-09-18T03:37:08;17.40;62.80
49385;DHT22;36795;45.028;38.968;2023-09-18T03:39:54;17.30;62.80
49385;DHT22;36795;45.028;38.968;2023-09-18T03:42:40;17.30;62.80
49385;DHT22;36795;45.028;38.968;2023-09-18T03:45:26;17.40;62.80
49385;DHT22;36795;45.028;38.968;2023-09-18T03:48:13;17.40;62.70
49385;DHT22;36795;45.028;38.968;2023-09-18T03:50:59;17.40;62.60
49385;DHT22;36795;45.028;38.968;2023-09-18T03:53:45;17.40;62.40
49385;DHT22;36795;45.028;38.968;2023-09-18T03:56:32;17.50;62.40
49385;DHT22;36795;45.028;38.968;2023-09-18T03:59:18;17.40;62.40
49385;DHT22;36795;45.028;38.968;2023-09-18T04:02:04;17.40;62.50
49385;DHT22;36795;45.028;38.968;2023-09-18T04:04:53;17.50;62.50
49385;DHT22;36795;45.028;38.968;2023-09-18T04:07:39;17.50;62.20
49385;DHT22;36795;45.028;38.968;2023-09-18T04:10:26;17.50;62.20
49385;DHT22;36795;45.028;38.968;2023-09-18T04:13:12;17.60;62.20
49385;DHT22;36795;45.028;38.968;2023-09-18T04:16:00;17.70;61.90
49385;DHT22;36795;45.028;38.968;2023-09-18T04:18:48;17.80;62.30
49385;DHT22;36795;45.028;38.968;2023-09-18T04:21:35;17.90;61.80
49385;DHT22;36795;45.028;38.968;2023-09-18T04:24:22;17.90;61.80
49385;DHT22;36795;45.028;38.968;2023-09-18T04:27:09;18.00;61.80
49385;DHT22;36795;45.028;38.968;2023-09-18T04:29:56;18.00;61.80
49385;DHT22;36795;45.028;38.968;2023-09-18T04:32:42;18.20;62.10
49385;DHT22;36795;45.028;38.968;2023-09-18T04:35:30;18.40;61.50
49385;DHT22;36795;45.028;38.968;2023-09-18T04:38:18;18.40;61.20
49385;DHT22;36795;45.028;38.968;2023-09-18T04:41:04;18.50;61.00
49385;DHT22;36795;45.028;38.968;2023-09-18T04:43:53;18.60;60.80
49385;DHT22;36795;45.028;38.968;2023-09-18T04:46:39;18.60;60.40
49385;DHT22;36795;45.028;38.968;2023-09-18T04:49:28;18.70;60.30
49385;DHT22;36795;45.028;38.968;2023-09-18T04:52:15;18.60;60.30
49385;DHT22;36795;45.028;38.968;2023-09-18T04:55:01;18.70;60.10
49385;DHT22;36795;45.028;38.968;2023-09-18T04:57:47;18.80;60.00
49385;DHT22;36795;45.028;38.968;2023-09-18T05:00:35;18.80;59.90
49385;DHT22;36795;45.028;38.968;2023-09-18T05:03:29;18.80;59.90
49385;DHT22;36795;45.028;38.968;2023-09-18T05:06:16;18.80;59.80
49385;DHT22;36795;45.028;38.968;2023-09-18T05:09:02;18.70;60.10
49385;DHT22;36795;45.028;38.968;2023-09-18T05:11:49;18.80;60.00
49385;DHT22;36795;45.028;38.968;2023-09-18T05:14:35;18.90;59.90
49385;DHT22;36795;45.028;38.968;2023-09-18T05:17:43;18.90;60.00
49385;DHT22;36795;45.028;38.968;2023-09-18T05:20:31;19.00;59.80
49385;DHT22;36795;45.028;38.968;2023-09-18T05:23:17;19.10;59.60
49385;DHT22;36795;45.028;38.968;2023-09-18T05:26:04;19.20;59.70
49385;DHT22;36795;45.028;38.968;2023-09-18T05:28:51;19.30;59.50
49385;DHT22;36795;45.028;38.968;2023-09-18T05:31:36;19.50;59.10
49385;DHT22;36795;45.028;38.968;2023-09-18T05:34:23;19.90;58.80
49385;DHT22;36795;45.028;38.968;2023-09-18T05:37:08;20.50;57.40
49385;DHT22;36795;45.028;38.968;2023-09-18T05:39:55;21.10;56.30
49385;DHT22;36795;45.028;38.968;2023-09-18T05:42:43;21.70;54.80
49385;DHT22;36795;45.028;38.968;2023-09-18T05:45:31;22.20;53.50
49385;DHT22;36795;45.028;38.968;2023-09-18T05:48:18;22.60;52.50
49385;DHT22;36795;45.028;38.968;2023-09-18T05:51:05;23.00;51.90
49385;DHT22;36795;45.028;38.968;2023-09-18T05:53:53;23.40;51.10
49385;DHT22;36795;45.028;38.968;2023-09-18T05:56:40;23.70;50.20
49385;DHT22;36795;45.028;38.968;2023-09-18T05:59:25;23.90;49.60
49385;DHT22;36795;45.028;38.968;2023-09-18T06:02:12;24.10;49.40
49385;DHT22;36795;45.028;38.968;2023-09-18T06:04:59;24.40;48.50
49385;DHT22;36795;45.028;38.968;2023-09-18T06:07:46;24.50;48.10
49385;DHT22;36795;45.028;38.968;2023-09-18T06:10:32;24.60;47.70
49385;DHT22;36795;45.028;38.968;2023-09-18T06:13:18;24.70;47.70
49385;DHT22;36795;45.028;38.968;2023-09-18T06:16:05;25.00;47.40
49385;DHT22;36795;45.028;38.968;2023-09-18T06:18:53;25.40;46.70
49385;DHT22;36795;45.028;38.968;2023-09-18T06:21:42;25.90;45.90
49385;DHT22;36795;45.028;38.968;2023-09-18T06:24:36;26.00;45.00
49385;DHT22;36795;45.028;38.968;2023-09-18T06:27:27;26.10;45.10
49385;DHT22;36795;45.028;38.968;2023-09-18T06:30:13;26.40;44.50
49385;DHT22;36795;45.028;38.968;2023-09-18T06:33:00;26.90;43.90
49385;DHT22;36795;45.028;38.968;2023-09-18T06:35:46;27.50;43.10
49385;DHT22;36795;45.028;38.968;2023-09-18T06:38:34;27.90;42.20
49385;DHT22;36795;45.028;38.968;2023-09-18T06:41:24;28.30;41.50
49385;DHT22;36795;45.028;38.968;2023-09-18T06:44:20;28.80;40.50
49385;DHT22;36795;45.028;38.968;2023-09-18T06:47:10;28.90;40.10
49385;DHT22;36795;45.028;38.968;2023-09-18T06:49:56;29.10;40.10
49385;DHT22;36795;45.028;38.968;2023-09-18T06:52:43;29.20;39.60
49385;DHT22;36795;45.028;38.968;2023-09-18T06:55:36;28.80;39.50
49385;DHT22;36795;45.028;38.968;2023-09-18T06:58:22;28.50;40.10
49385;DHT22;36795;45.028;38.968;2023-09-18T07:01:08;29.50;39.50
49385;DHT22;36795;45.028;38.968;2023-09-18T07:03:54;30.50;37.90
49385;DHT22;36795;45.028;38.968;2023-09-18T07:06:46;29.20;38.90
49385;DHT22;36795;45.028;38.968;2023-09-18T07:09:32;28.50;40.00
49385;DHT22;36795;45.028;38.968;2023-09-18T07:12:19;29.40;39.20
49385;DHT22;36795;45.028;38.968;2023-09-18T07:15:06;30.40;37.90
49385;DHT22;36795;45.028;38.968;2023-09-18T07:17:53;31.60;36.40
49385;DHT22;36795;45.028;38.968;2023-09-18T07:20:38;32.00;35.50
49385;DHT22;36795;45.028;38.968;2023-09-18T07:23:24;32.20;35.40
49385;DHT22;36795;45.028;38.968;2023-09-18T07:26:12;31.80;35.40
49385;DHT22;36795;45.028;38.968;2023-09-18T07:28:58;31.00;36.40
49385;DHT22;36795;45.028;38.968;2023-09-18T07:31:45;30.70;36.70
49385;DHT22;36795;45.028;38.968;2023-09-18T07:34:31;30.80;36.70
49385;DHT22;36795;45.028;38.968;2023-09-18T07:37:17;31.00;36.30
49385;DHT22;36795;45.028;38.968;2023-09-18T07:40:08;30.70;36.50
49385;DHT22;36795;45.028;38.968;2023-09-18T07:42:54;30.20;36.70
49385;DHT22;36795;45.028;38.968;2023-09-18T07:45:41;29.70;37.50
49385;DHT22;36795;45.028;38.968;2023-09-18T07:48:27;29.20;38.10
49385;DHT22;36795;45.028;38.968;2023-09-18T07:51:13;28.30;40.00
49385;DHT22;36795;45.028;38.968;2023-09-18T07:54:01;27.40;40.90
49385;DHT22;36795;45.028;38.968;2023-09-18T07:56:47;26.70;41.90
49385;DHT22;36795;45.028;38.968;2023-09-18T07:59:33;26.40;42.60
49385;DHT22;36795;45.028;38.968;2023-09-18T08:02:19;26.40;42.40
49385;DHT22;36795;45.028;38.968;2023-09-18T08:05:10;27.20;41.10
49385;DHT22;36795;45.028;38.968;2023-09-18T08:08:00;28.90;39.10
49385;DHT22;36795;45.028;38.968;2023-09-18T08:10:50;30.70;36.80
49385;DHT22;36795;45.028;38.968;2023-09-18T08:13:36;31.60;35.30
49385;DHT22;36795;45.028;38.968;2023-09-18T08:16:25;31.70;35.10
49385;DHT22;36795;45.028;38.968;2023-09-18T08:19:15;31.00;35.50
49385;DHT22;36795;45.028;38.968;2023-09-18T08:22:03;29.70;37.00
49385;DHT22;36795;45.028;38.968;2023-09-18T08:24:52;28.30;38.80
49385;DHT22;36795;45.028;38.968;2023-09-18T08:27:39;27.20;40.80
49385;DHT22;36795;45.028;38.968;2023-09-18T08:30:30;26.60;41.60
49385;DHT22;36795;45.028;38.968;2023-09-18T08:33:16;26.40;42.00
49385;DHT22;36795;45.028;38.968;2023-09-18T08:36:02;26.80;41.60
49385;DHT22;36795;45.028;38.968;2023-09-18T08:38:49;27.50;40.60
49385;DHT22;36795;45.028;38.968;2023-09-18T08:41:41;27.40;40.30
49385;DHT22;36795;45.028;38.968;2023-09-18T08:44:28;27.00;40.60
49385;DHT22;36795;45.028;38.968;2023-09-18T08:47:18;26.60;41.30
49385;DHT22;36795;45.028;38.968;2023-09-18T08:50:11;26.50;41.30
49385;DHT22;36795;45.028;38.968;2023-09-18T08:52:58;26.20;41.30
49385;DHT22;36795;45.028;38.968;2023-09-18T08:55:45;26.00;41.60
49385;DHT22;36795;45.028;38.968;2023-09-18T08:58:33;26.00;41.60
49385;DHT22;36795;45.028;38.968;2023-09-18T09:01:22;25.90;41.10
49385;DHT22;36795;45.028;38.968;2023-09-18T09:04:08;25.80;41.40
49385;DHT22;36795;45.028;38.968;2023-09-18T09:06:55;26.10;41.20
49385;DHT22;36795;45.028;38.968;2023-09-18T09:09:47;26.70;40.70
49385;DHT22;36795;45.028;38.968;2023-09-18T09:12:56;27.10;39.90
49385;DHT22;36795;45.028;38.968;2023-09-18T09:15:47;26.80;40.50
49385;DHT22;36795;45.028;38.968;2023-09-18T09:18:50;26.70;41.00
49385;DHT22;36795;45.028;38.968;2023-09-18T09:21:41;26.70;41.10
49385;DHT22;36795;45.028;38.968;2023-09-18T09:24:41;26.70;41.20
49385;DHT22;36795;45.028;38.968;2023-09-18T09:27:42;26.60;41.40
49385;DHT22;36795;45.028;38.968;2023-09-18T09:30:36;26.40;41.20
49385;DHT22;36795;45.028;38.968;2023-09-18T09:33:24;26.10;41.20
49385;DHT22;36795;45.028;38.968;2023-09-18T09:36:10;26.10;41.00
49385;DHT22;36795;45.028;38.968;2023-09-18T09:38:57;26.00;41.00
49385;DHT22;36795;45.028;38.968;2023-09-18T09:41:47;26.00;40.80
49385;DHT22;36795;45.028;38.968;2023-09-18T09:44:34;25.90;40.90
49385;DHT22;36795;45.028;38.968;2023-09-18T09:47:21;25.70;41.40
49385;DHT22;36795;45.028;38.968;2023-09-18T09:50:09;25.70;41.20
49385;DHT22;36795;45.028;38.968;2023-09-18T09:52:56;25.80;41.10
49385;DHT22;36795;45.028;38.968;2023-09-18T09:55:42;25.90;41.00
49385;DHT22;36795;45.028;38.968;2023-09-18T09:58:28;25.90;40.80
49385;DHT22;36795;45.028;38.968;2023-09-18T10:01:16;25.70;40.90
49385;DHT22;36795;45.028;38.968;2023-09-18T10:04:14;25.80;41.70
49385;DHT22;36795;45.028;38.968;2023-09-18T10:07:08;25.70;41.20
49385;DHT22;36795;45.028;38.968;2023-09-18T10:09:54;25.80;41.20
49385;DHT22;36795;45.028;38.968;2023-09-18T10:12:41;25.90;41.10
49385;DHT22;36795;45.028;38.968;2023-09-18T10:15:33;26.00;40.50
49385;DHT22;36795;45.028;38.968;2023-09-18T10:18:45;25.90;40.70
49385;DHT22;36795;45.028;38.968;2023-09-18T10:21:45;25.90;40.60
49385;DHT22;36795;45.028;38.968;2023-09-18T10:24:37;25.90;40.50
49385;DHT22;36795;45.028;38.968;2023-09-18T10:27:29;25.80;41.00
49385;DHT22;36795;45.028;38.968;2023-09-18T10:30:16;25.70;41.00
49385;DHT22;36795;45.028;38.968;2023-09-18T10:33:04;25.70;41.00
49385;DHT22;36795;45.028;38.968;2023-09-18T10:35:53;25.90;40.80
49385;DHT22;36795;45.028;38.968;2023-09-18T10:38:41;25.80;40.90
49385;DHT22;36795;45.028;38.968;2023-09-18T10:41:27;25.90;40.90
49385;DHT22;36795;45.028;38.968;2023-09-18T10:44:16;26.00;40.90
49385;DHT22;36795;45.028;38.968;2023-09-18T10:47:06;26.00;40.70
49385;DHT22;36795;45.028;38.968;2023-09-18T10:49:54;25.90;40.90
49385;DHT22;36795;45.028;38.968;2023-09-18T10:52:44;26.10;40.60
49385;DHT22;36795;45.028;38.968;2023-09-18T10:55:31;26.10;40.40
49385;DHT22;36795;45.028;38.968;2023-09-18T10:58:23;26.20;40.10
49385;DHT22;36795;45.028;38.968;2023-09-18T11:01:13;26.10;40.00
49385;DHT22;36795;45.028;38.968;2023-09-18T11:04:05;26.10;40.00
49385;DHT22;36795;45.028;38.968;2023-09-18T11:09:44;26.10;39.90
49385;DHT22;36795;45.028;38.968;2023-09-18T11:12:45;26.40;39.40
49385;DHT22;36795;45.028;38.968;2023-09-18T11:15:31;26.80;38.80
49385;DHT22;36795;45.028;38.968;2023-09-18T11:18:19;27.30;38.20
49385;DHT22;36795;45.028;38.968;2023-09-18T11:21:08;27.80;37.30
49385;DHT22;36795;45.028;38.968;2023-09-18T11:24:16;28.30;36.90
49385;DHT22;36795;45.028;38.968;2023-09-18T11:27:02;29.00;36.30
49385;DHT22;36795;45.028;38.968;2023-09-18T11:29:51;29.50;35.50
49385;DHT22;36795;45.028;38.968;2023-09-18T11:32:38;30.00;34.60
49385;DHT22;36795;45.028;38.968;2023-09-18T11:35:27;30.10;34.50
49385;DHT22;36795;45.028;38.968;2023-09-18T11:38:13;30.00;34.40
49385;DHT22;36795;45.028;38.968;2023-09-18T11:41:00;29.80;34.40
49385;DHT22;36795;45.028;38.968;2023-09-18T11:43:49;29.60;34.80
49385;DHT22;36795;45.028;38.968;2023-09-18T11:46:38;29.50;34.90
49385;DHT22;36795;45.028;38.968;2023-09-18T11:49:28;29.50;35.10
49385;DHT22;36795;45.028;38.968;2023-09-18T11:52:18;30.00;34.60
49385;DHT22;36795;45.028;38.968;2023-09-18T11:55:06;31.40;33.40
49385;DHT22;36795;45.028;38.968;2023-09-18T11:57:53;32.20;31.90
49385;DHT22;36795;45.028;38.968;2023-09-18T12:00:43;32.50;31.70
49385;DHT22;36795;45.028;38.968;2023-09-18T12:03:33;32.80;31.40
49385;DHT22;36795;45.028;38.968;2023-09-18T12:06:19;32.00;32.20
49385;DHT22;36795;45.028;38.968;2023-09-18T12:09:06;31.50;32.80
49385;DHT22;36795;45.028;38.968;2023-09-18T12:11:52;31.40;32.70
49385;DHT22;36795;45.028;38.968;2023-09-18T12:14:42;31.50;32.40
49385;DHT22;36795;45.028;38.968;2023-09-18T12:17:28;31.60;32.30
49385;DHT22;36795;45.028;38.968;2023-09-18T12:20:18;31.60;32.30
49385;DHT22;36795;45.028;38.968;2023-09-18T12:23:04;31.00;32.80
49385;DHT22;36795;45.028;38.968;2023-09-18T12:26:00;30.00;34.00
49385;DHT22;36795;45.028;38.968;2023-09-18T12:28:47;29.70;34.20
49385;DHT22;36795;45.028;38.968;2023-09-18T12:31:35;30.10;34.10
49385;DHT22;36795;45.028;38.968;2023-09-18T12:34:22;31.10;33.40
49385;DHT22;36795;45.028;38.968;2023-09-18T12:37:09;32.30;32.20
49385;DHT22;36795;45.028;38.968;2023-09-18T12:39:58;32.60;31.60
49385;DHT22;36795;45.028;38.968;2023-09-18T12:42:47;32.70;31.30
49385;DHT22;36795;45.028;38.968;2023-09-18T12:45:34;33.20;31.00
49385;DHT22;36795;45.028;38.968;2023-09-18T12:48:21;33.70;30.20
49385;DHT22;36795;45.028;38.968;2023-09-18T12:51:07;33.50;30.20
49385;DHT22;36795;45.028;38.968;2023-09-18T12:54:03;32.90;30.40
49385;DHT22;36795;45.028;38.968;2023-09-18T12:56:51;32.10;31.40
49385;DHT22;36795;45.028;38.968;2023-09-18T12:59:38;31.40;32.20
49385;DHT22;36795;45.028;38.968;2023-09-18T13:02:24;31.20;32.60
49385;DHT22;36795;45.028;38.968;2023-09-18T13:05:11;31.40;32.40
49385;DHT22;36795;45.028;38.968;2023-09-18T13:08:05;31.70;32.20
49385;DHT22;36795;45.028;38.968;2023-09-18T13:10:51;32.00;31.80
49385;DHT22;36795;45.028;38.968;2023-09-18T13:13:40;32.00;31.70
49385;DHT22;36795;45.028;38.968;2023-09-18T13:16:27;31.40;32.30
49385;DHT22;36795;45.028;38.968;2023-09-18T13:19:12;30.60;33.30
49385;DHT22;36795;45.028;38.968;2023-09-18T13:21:59;30.70;33.40
49385;DHT22;36795;45.028;38.968;2023-09-18T13:24:45;30.80;33.20
49385;DHT22;36795;45.028;38.968;2023-09-18T13:27:31;30.80;33.30
49385;DHT22;36795;45.028;38.968;2023-09-18T13:30:17;30.50;33.60
49385;DHT22;36795;45.028;38.968;2023-09-18T13:33:12;30.20;33.80
49385;DHT22;36795;45.028;38.968;2023-09-18T13:35:59;29.70;34.10
49385;DHT22;36795;45.028;38.968;2023-09-18T13:38:46;28.90;35.00
49385;DHT22;36795;45.028;38.968;2023-09-18T13:41:33;28.60;35.40
49385;DHT22;36795;45.028;38.968;2023-09-18T13:44:19;28.40;35.50
49385;DHT22;36795;45.028;38.968;2023-09-18T13:47:05;28.10;35.70
49385;DHT22;36795;45.028;38.968;2023-09-18T13:49:51;28.00;36.10
49385;DHT22;36795;45.028;38.968;2023-09-18T13:52:37;28.20;36.10
49385;DHT22;36795;45.028;38.968;2023-09-18T13:55:23;28.60;35.60
49385;DHT22;36795;45.028;38.968;2023-09-18T13:58:09;28.90;35.50
49385;DHT22;36795;45.028;38.968;2023-09-18T14:00:57;29.00;35.40
49385;DHT22;36795;45.028;38.968;2023-09-18T14:03:52;29.00;35.20
49385;DHT22;36795;45.028;38.968;2023-09-18T14:06:39;28.90;35.30
49385;DHT22;36795;45.028;38.968;2023-09-18T14:09:25;29.50;34.90
49385;DHT22;36795;45.028;38.968;2023-09-18T14:12:10;30.30;33.80
49385;DHT22;36795;45.028;38.968;2023-09-18T14:14:57;31.00;32.90
49385;DHT22;36795;45.028;38.968;2023-09-18T14:17:43;31.40;32.00
49385;DHT22;36795;45.028;38.968;2023-09-18T14:20:30;31.60;31.70
49385;DHT22;36795;45.028;38.968;2023-09-18T14:23:16;31.70;31.40
49385;DHT22;36795;45.028;38.968;2023-09-18T14:26:02;31.70;31.50
49385;DHT22;36795;45.028;38.968;2023-09-18T14:28:48;32.10;31.50
49385;DHT22;36795;45.028;38.968;2023-09-18T14:31:36;31.90;31.60
49385;DHT22;36795;45.028;38.968;2023-09-18T14:34:23;31.80;31.50
49385;DHT22;36795;45.028;38.968;2023-09-18T14:37:10;31.50;31.70
49385;DHT22;36795;45.028;38.968;2023-09-18T14:39:55;31.20;31.80
49385;DHT22;36795;45.028;38.968;2023-09-18T14:42:42;30.80;31.90
49385;DHT22;36795;45.028;38.968;2023-09-18T14:45:28;30.50;32.10
49385;DHT22;36795;45.028;38.968;2023-09-18T14:48:14;29.90;32.80
49385;DHT22;36795;45.028;38.968;2023-09-18T14:51:00;29.00;33.60
49385;DHT22;36795;45.028;38.968;2023-09-18T14:53:46;28.20;34.50
49385;DHT22;36795;45.028;38.968;2023-09-18T14:56:32;27.60;35.40
49385;DHT22;36795;45.028;38.968;2023-09-18T14:59:19;27.10;36.10
49385;DHT22;36795;45.028;38.968;2023-09-18T15:02:07;26.70;36.50
49385;DHT22;36795;45.028;38.968;2023-09-18T15:05:00;26.40;36.90
49385;DHT22;36795;45.028;38.968;2023-09-18T15:07:57;26.20;37.30
49385;DHT22;36795;45.028;38.968;2023-09-18T15:10:49;26.00;37.60
49385;DHT22;36795;45.028;38.968;2023-09-18T15:13:47;25.90;37.80
49385;DHT22;36795;45.028;38.968;2023-09-18T15:16:33;25.70;38.00
49385;DHT22;36795;45.028;38.968;2023-09-18T15:19:21;25.70;38.30
49385;DHT22;36795;45.028;38.968;2023-09-18T15:22:17;25.50;38.30
49385;DHT22;36795;45.028;38.968;2023-09-18T15:25:04;25.50;38.50
49385;DHT22;36795;45.028;38.968;2023-09-18T15:27:53;25.40;38.70
49385;DHT22;36795;45.028;38.968;2023-09-18T15:30:40;25.30;38.90
49385;DHT22;36795;45.028;38.968;2023-09-18T15:33:27;25.30;39.20
49385;DHT22;36795;45.028;38.968;2023-09-18T15:36:14;25.10;39.10
49385;DHT22;36795;45.028;38.968;2023-09-18T15:39:00;25.10;39.90
49385;DHT22;36795;45.028;38.968;2023-09-18T15:41:47;25.00;39.40
49385;DHT22;36795;45.028;38.968;2023-09-18T15:44:34;24.90;39.50
49385;DHT22;36795;45.028;38.968;2023-09-18T15:47:24;24.90;39.60
49385;DHT22;36795;45.028;38.968;2023-09-18T15:50:12;24.80;39.50
49385;DHT22;36795;45.028;38.968;2023-09-18T15:52:58;24.80;39.70
49385;DHT22;36795;45.028;38.968;2023-09-18T15:55:45;24.70;39.70
49385;DHT22;36795;45.028;38.968;2023-09-18T15:58:31;24.70;39.80
49385;DHT22;36795;45.028;38.968;2023-09-18T16:01:17;24.60;39.70
49385;DHT22;36795;45.028;38.968;2023-09-18T16:04:03;24.60;39.70
49385;DHT22;36795;45.028;38.968;2023-09-18T16:06:49;24.50;39.80
49385;DHT22;36795;45.028;38.968;2023-09-18T16:09:36;24.50;39.80
49385;DHT22;36795;45.028;38.968;2023-09-18T16:12:21;24.50;39.80
49385;DHT22;36795;45.028;38.968;2023-09-18T16:15:08;24.40;39.70
49385;DHT22;36795;45.028;38.968;2023-09-18T16:17:55;24.40;39.80
49385;DHT22;36795;45.028;38.968;2023-09-18T16:20:41;24.40;39.80
49385;DHT22;36795;45.028;38.968;2023-09-18T16:23:29;24.30;39.70
49385;DHT22;36795;45.028;38.968;2023-09-18T16:26:16;24.30;39.80
49385;DHT22;36795;45.028;38.968;2023-09-18T16:29:03;24.20;40.40
49385;DHT22;36795;45.028;38.968;2023-09-18T16:31:51;24.20;39.90
49385;DHT22;36795;45.028;38.968;2023-09-18T16:34:39;24.20;40.00
49385;DHT22;36795;45.028;38.968;2023-09-18T16:37:42;24.10;40.00
49385;DHT22;36795;45.028;38.968;2023-09-18T16:40:31;24.10;40.00
49385;DHT22;36795;45.028;38.968;2023-09-18T16:43:17;24.10;40.10
49385;DHT22;36795;45.028;38.968;2023-09-18T16:46:05;24.00;40.00
49385;DHT22;36795;45.028;38.968;2023-09-18T16:48:55;24.00;40.10
49385;DHT22;36795;45.028;38.968;2023-09-18T16:51:41;24.00;40.10
49385;DHT22;36795;45.028;38.968;2023-09-18T16:54:30;24.00;40.20
49385;DHT22;36795;45.028;38.968;2023-09-18T16:57:19;23.90;40.20
49385;DHT22;36795;45.028;38.968;2023-09-18T17:00:06;23.90;40.20
49385;DHT22;36795;45.028;38.968;2023-09-18T17:02:53;23.90;40.40
49385;DHT22;36795;45.028;38.968;2023-09-18T17:05:39;23.90;40.30
49385;DHT22;36795;45.028;38.968;2023-09-18T17:08:25;23.80;40.30
49385;DHT22;36795;45.028;38.968;2023-09-18T17:11:12;23.80;40.30
49385;DHT22;36795;45.028;38.968;2023-09-18T17:13:58;23.70;40.40
49385;DHT22;36795;45.028;38.968;2023-09-18T17:16:45;23.70;40.50
49385;DHT22;36795;45.028;38.968;2023-09-18T17:19:31;23.70;40.60
49385;DHT22;36795;45.028;38.968;2023-09-18T17:22:18;23.60;40.90
49385;DHT22;36795;45.028;38.968;2023-09-18T17:25:08;23.60;40.70